createdAt,value
2018-04-08T00:07:00.390Z,9.43
2018-04-08T00:09:30.296Z,9.87
2018-04-08T00:12:00.135Z,10.37
2018-04-08T00:14:31.598Z,10.10
2018-04-08T00:17:02.335Z,10.70
2018-04-08T00:19:32.954Z,9.60
2018-04-08T00:22:03.590Z,9.33
2018-04-08T00:24:34.227Z,11.00
2018-04-08T00:27:05.683Z,10.57
2018-04-08T00:29:36.714Z,10.60
2018-04-08T00:32:08.133Z,10.17
2018-04-08T00:34:38.010Z,10.10
2018-04-08T00:37:08.397Z,8.63
2018-04-08T00:39:39.045Z,9.60
2018-04-08T00:42:08.943Z,9.73
2018-04-08T00:44:39.568Z,8.30
2018-04-08T00:47:09.416Z,8.40
2018-04-08T00:49:40.113Z,8.30
2018-04-08T00:52:11.416Z,9.10
2018-04-08T00:54:42.158Z,9.60
2018-04-08T00:57:12.522Z,9.73
2018-04-08T00:59:42.952Z,9.60
2018-04-08T01:02:14.289Z,9.57
2018-04-08T01:04:45.152Z,8.70
2018-04-08T01:07:17.651Z,9.33
2018-04-08T01:09:47.834Z,9.60
2018-04-08T01:12:19.032Z,9.20
2018-04-08T01:14:49.330Z,9.00
2018-04-08T01:17:19.872Z,9.37
2018-04-08T01:19:50.316Z,9.00
2018-04-08T01:22:20.805Z,8.57
2018-04-08T01:24:51.506Z,8.87
2018-04-08T01:27:22.419Z,9.20
2018-04-08T01:29:53.855Z,8.67
2018-04-08T01:32:24.163Z,8.43
2018-04-08T01:34:54.711Z,7.90
2018-04-08T01:37:25.818Z,9.70
2018-04-08T01:39:57.103Z,9.10
2018-04-08T01:42:27.023Z,8.80
2018-04-08T01:44:57.497Z,10.33
2018-04-08T01:47:28.129Z,8.23
2018-04-08T01:49:59.209Z,8.90
2018-04-08T01:52:29.606Z,9.73
2018-04-08T01:55:00.751Z,8.70
2018-04-08T01:57:31.626Z,8.90
2018-04-08T02:00:01.603Z,9.00
2018-04-08T02:02:32.215Z,8.67
2018-04-08T02:05:02.136Z,9.07
2018-04-08T02:07:32.740Z,8.73
2018-04-08T02:10:02.581Z,9.43
2018-04-08T02:12:32.506Z,8.83
2018-04-08T02:15:03.129Z,9.63
2018-04-08T02:17:34.803Z,9.43
2018-04-08T02:20:06.131Z,10.60
2018-04-08T02:22:36.829Z,9.60
2018-04-08T02:25:06.688Z,9.73
2018-04-08T02:27:37.518Z,10.47
2018-04-08T02:30:08.647Z,9.77
2018-04-08T02:32:39.270Z,9.53
2018-04-08T02:35:09.186Z,10.00
2018-04-08T02:37:41.255Z,9.93
2018-04-08T02:40:11.188Z,10.00
2018-04-08T02:42:41.813Z,10.83
2018-04-08T02:45:12.553Z,9.70
2018-04-08T02:47:43.807Z,11.53
2018-04-08T02:50:14.413Z,10.13
2018-04-08T02:52:44.369Z,10.20
2018-04-08T02:55:34.644Z,9.77
2018-04-08T02:58:05.278Z,11.07
2018-04-08T03:00:35.190Z,10.93
2018-04-08T03:03:05.924Z,10.67
2018-04-08T03:05:36.846Z,11.03
2018-04-08T03:08:07.705Z,10.80
2018-04-08T03:10:38.784Z,11.30
2018-04-08T03:13:08.723Z,11.97
2018-04-08T03:15:39.967Z,11.10
2018-04-08T03:18:09.855Z,11.20
2018-04-08T03:20:39.833Z,10.90
2018-04-08T03:23:10.559Z,10.20
2018-04-08T03:25:41.198Z,10.40
2018-04-08T03:28:12.955Z,11.03
2018-04-08T03:30:43.695Z,11.53
2018-04-08T03:33:13.616Z,9.93
2018-04-08T03:35:43.500Z,11.23
2018-04-08T03:38:13.778Z,10.80
2018-04-08T03:40:44.663Z,10.03
2018-04-08T03:43:16.155Z,11.17
2018-04-08T03:45:46.354Z,10.50
2018-04-08T03:48:16.740Z,11.33
2018-04-08T03:50:47.226Z,10.90
2018-04-08T03:53:17.611Z,10.80
2018-04-08T03:55:47.860Z,11.37
2018-04-08T03:58:18.371Z,9.90
2018-04-08T04:00:49.699Z,10.93
2018-04-08T04:03:20.737Z,11.17
2018-04-08T04:05:50.797Z,11.30
2018-04-08T04:08:20.607Z,11.27
2018-04-08T04:10:50.722Z,11.63
2018-04-08T04:13:22.171Z,11.67
2018-04-08T04:15:53.727Z,11.57
2018-04-08T04:18:35.114Z,11.77
2018-04-08T04:21:17.520Z,10.43
2018-04-08T04:23:58.596Z,10.70
2018-04-08T04:26:34.119Z,11.17
2018-04-08T04:29:05.521Z,11.63
2018-04-08T04:31:36.027Z,11.40
2018-04-08T04:34:06.749Z,11.13
2018-04-08T04:36:38.162Z,11.27
2018-04-08T04:39:08.402Z,10.97
2018-04-08T04:41:39.039Z,11.40
2018-04-08T04:44:10.053Z,11.50
2018-04-08T04:46:41.053Z,10.20
2018-04-08T04:49:11.219Z,11.70
2018-04-08T04:51:41.086Z,10.63
2018-04-08T04:54:11.498Z,11.10
2018-04-08T04:56:42.183Z,10.87
2018-04-08T04:59:12.033Z,10.60
2018-04-08T05:01:43.715Z,11.27
2018-04-08T05:04:14.228Z,11.10
2018-04-08T05:06:45.559Z,11.33
2018-04-08T05:09:15.531Z,10.63
2018-04-08T05:11:45.399Z,9.70
2018-04-08T05:14:16.953Z,10.17
2018-04-08T05:16:47.935Z,9.73
2018-04-08T05:19:18.931Z,9.40
2018-04-08T05:21:50.274Z,9.90
2018-04-08T05:24:21.365Z,9.30
2018-04-08T05:26:51.448Z,9.27
2018-04-08T05:29:21.857Z,9.43
2018-04-08T05:31:52.866Z,8.87
2018-04-08T05:34:24.127Z,9.10
2018-04-08T05:36:54.578Z,9.80
2018-04-08T05:39:25.875Z,9.30
2018-04-08T05:41:56.424Z,8.90
2018-04-08T05:44:26.785Z,8.60
2018-04-08T05:46:59.748Z,8.17
2018-04-08T05:49:30.841Z,9.40
2018-04-08T05:52:00.738Z,8.10
2018-04-08T05:54:30.584Z,8.40
2018-04-08T05:57:00.440Z,8.17
2018-04-08T05:59:32.836Z,8.30
2018-04-08T06:02:04.449Z,7.77
2018-04-08T06:04:34.296Z,7.13
2018-04-08T06:07:04.983Z,7.93
2018-04-08T06:09:34.838Z,7.17
2018-04-08T06:12:05.566Z,7.50
2018-04-08T06:14:36.201Z,7.33
2018-04-08T06:17:09.899Z,6.77
2018-04-08T06:19:40.939Z,7.80
2018-04-08T06:22:13.334Z,6.73
2018-04-08T06:24:44.362Z,7.17
2018-04-08T06:27:15.092Z,7.23
2018-04-08T06:29:45.728Z,8.00
2018-04-08T06:32:16.504Z,7.20
2018-04-08T06:34:47.557Z,7.00
2018-04-08T06:37:17.662Z,6.90
2018-04-08T06:39:48.760Z,6.60
2018-04-08T06:42:20.591Z,6.97
2018-04-08T06:44:50.676Z,7.60
2018-04-08T06:47:21.065Z,6.20
2018-04-08T06:49:51.947Z,6.67
2018-04-08T06:52:21.808Z,6.37
2018-04-08T06:54:52.437Z,5.50
2018-04-08T06:57:23.045Z,7.10
2018-04-08T06:59:53.007Z,6.10
2018-04-08T07:02:24.347Z,5.77
2018-04-08T07:04:54.566Z,6.23
2018-04-08T07:07:26.119Z,6.53
2018-04-08T07:09:57.018Z,6.33
2018-04-08T07:12:27.076Z,6.20
2018-04-08T07:14:58.012Z,6.37
2018-04-08T07:17:30.419Z,5.73
2018-04-08T07:20:01.948Z,6.93
2018-04-08T07:22:31.946Z,5.47
2018-04-08T07:25:02.069Z,5.40
2018-04-08T07:27:33.213Z,5.80
2018-04-08T07:30:04.258Z,5.30
2018-04-08T07:32:35.738Z,5.50
2018-04-08T07:35:05.588Z,4.57
2018-04-08T07:37:35.443Z,6.13
2018-04-08T07:40:05.304Z,5.20
2018-04-08T07:42:35.147Z,5.33
2018-04-08T07:45:05.786Z,5.90
2018-04-08T07:47:36.400Z,5.20
2018-04-08T07:50:06.277Z,4.83
2018-04-08T07:52:36.730Z,5.67
2018-04-08T07:55:06.781Z,6.13
2018-04-08T07:57:37.468Z,5.70
2018-04-08T08:00:07.432Z,4.90
2018-04-08T08:02:38.084Z,5.33
2018-04-08T08:05:09.077Z,5.97
2018-04-08T08:07:40.370Z,5.37
2018-04-08T08:10:10.260Z,5.83
2018-04-08T08:12:40.993Z,5.10
2018-04-08T08:15:11.838Z,6.07
2018-04-08T08:17:41.740Z,5.60
2018-04-08T08:20:12.492Z,5.93
2018-04-08T08:22:42.599Z,5.70
2018-04-08T08:25:13.334Z,6.10
2018-04-08T08:27:43.541Z,6.33
2018-04-08T08:30:15.413Z,6.37
2018-04-08T08:32:46.021Z,5.90
2018-04-08T08:35:17.195Z,6.60
2018-04-08T08:37:47.816Z,5.47
2018-04-08T08:40:18.477Z,6.07
2018-04-08T08:42:48.980Z,6.07
2018-04-08T08:45:19.616Z,5.93
2018-04-08T08:47:50.355Z,6.93
2018-04-08T08:50:20.273Z,5.83
2018-04-08T08:52:50.174Z,6.60
2018-04-08T08:55:20.818Z,6.17
2018-04-08T08:57:52.127Z,6.77
2018-04-08T09:00:22.004Z,5.80
2018-04-08T09:02:52.354Z,7.40
2018-04-08T09:05:22.349Z,6.70
2018-04-08T09:07:52.226Z,6.20
2018-04-08T09:10:22.962Z,6.13
2018-04-08T09:12:53.589Z,6.50
2018-04-08T09:15:24.546Z,6.47
2018-04-08T09:17:54.743Z,6.40
2018-04-08T09:20:35.006Z,7.10
2018-04-08T09:26:06.889Z,6.93
2018-04-08T09:28:37.193Z,7.10
2018-04-08T09:31:08.201Z,7.20
2018-04-08T09:33:38.333Z,6.30
2018-04-08T09:36:08.184Z,7.17
2018-04-08T09:38:38.195Z,7.17
2018-04-08T09:41:09.752Z,7.07
2018-04-08T09:43:40.352Z,7.40
2018-04-08T09:46:10.505Z,7.17
2018-04-08T09:48:41.132Z,7.57
2018-04-08T09:51:11.763Z,6.67
2018-04-08T09:53:42.604Z,7.50
2018-04-08T09:56:13.423Z,7.33
2018-04-08T09:58:45.944Z,8.00
2018-04-08T10:01:27.154Z,6.60
2018-04-08T10:03:57.224Z,7.30
2018-04-08T10:06:27.094Z,7.20
2018-04-08T10:08:57.459Z,7.60
2018-04-08T10:11:27.458Z,6.90
2018-04-08T10:13:58.068Z,7.57
2018-04-08T10:16:28.113Z,7.40
2018-04-08T10:18:58.869Z,7.00
2018-04-08T10:21:28.867Z,7.10
2018-04-08T10:24:01.307Z,7.03
2018-04-08T10:26:31.648Z,7.90
2018-04-08T10:29:01.543Z,6.83
2018-04-08T10:31:31.919Z,6.63
2018-04-08T10:34:02.738Z,7.53
2018-04-08T10:36:37.193Z,7.53
2018-04-08T10:39:07.339Z,6.97
2018-04-08T10:41:37.287Z,7.03
2018-04-08T10:44:08.648Z,7.57
2018-04-08T10:46:38.502Z,7.47
2018-04-08T10:49:08.578Z,6.87
2018-04-08T10:51:39.462Z,7.33
2018-04-08T10:54:09.428Z,6.77
2018-04-08T10:56:40.597Z,6.83
2018-04-08T10:59:10.482Z,7.97
2018-04-08T11:01:42.226Z,7.50
2018-04-08T11:04:12.832Z,7.57
2018-04-08T11:06:42.790Z,6.67
2018-04-08T11:09:13.864Z,7.77
2018-04-08T11:11:45.726Z,7.83
2018-04-08T11:14:15.668Z,7.50
2018-04-08T11:16:45.565Z,7.00
2018-04-08T11:19:15.443Z,7.20
2018-04-08T11:21:46.261Z,7.50
2018-04-08T11:24:17.566Z,7.47
2018-04-08T11:26:47.377Z,8.40
2018-04-08T11:29:17.307Z,6.90
2018-04-08T11:31:48.281Z,7.67
2018-04-08T11:34:18.201Z,7.87
2018-04-08T11:36:48.835Z,7.03
2018-04-08T11:39:19.637Z,7.63
2018-04-08T11:41:49.632Z,7.37
2018-04-08T11:44:20.704Z,7.77
2018-04-08T11:46:56.083Z,7.83
2018-04-08T11:49:26.905Z,8.07
2018-04-08T11:51:59.437Z,8.30
2018-04-08T11:54:31.509Z,8.23
2018-04-08T11:57:07.081Z,7.47
2018-04-08T11:59:40.009Z,7.77
2018-04-08T12:02:14.238Z,7.33
2018-04-08T12:04:47.179Z,7.80
2018-04-08T12:07:21.095Z,7.40
2018-04-08T12:09:55.546Z,8.43
2018-04-08T12:12:27.884Z,8.17
2018-04-08T12:15:00.334Z,8.97
2018-04-08T12:17:32.104Z,8.43
2018-04-08T12:20:03.699Z,8.97
2018-04-08T12:22:35.886Z,8.40
2018-04-08T12:25:07.636Z,8.80
2018-04-08T12:27:41.156Z,8.83
2018-04-08T12:30:16.397Z,8.70
2018-04-08T12:32:48.393Z,8.57
2018-04-08T12:35:19.247Z,8.67
2018-04-08T12:37:50.480Z,8.73
2018-04-08T12:40:21.397Z,9.37
2018-04-08T12:42:51.690Z,9.27
2018-04-08T12:45:21.755Z,9.80
2018-04-08T12:47:52.183Z,8.73
2018-04-08T12:50:24.098Z,9.00
2018-04-08T12:52:54.079Z,8.73
2018-04-08T12:55:25.106Z,9.17
2018-04-08T12:57:55.018Z,8.90
2018-04-08T13:00:27.116Z,9.20
2018-04-08T13:02:58.124Z,9.43
2018-04-08T13:05:28.023Z,10.00
2018-04-08T13:07:59.653Z,9.23
2018-04-08T13:10:31.422Z,10.00
2018-04-08T13:13:03.523Z,10.83
2018-04-08T13:15:34.152Z,8.60
2018-04-08T13:18:04.420Z,9.97
2018-04-08T13:20:35.512Z,9.90
2018-04-08T13:23:07.284Z,9.83
2018-04-08T13:25:37.496Z,9.70
2018-04-08T13:28:09.047Z,11.30
2018-04-08T13:30:40.706Z,10.00
2018-04-08T13:33:11.492Z,11.43
2018-04-08T13:35:41.459Z,9.97
2018-04-08T13:38:11.578Z,10.27
2018-04-08T13:40:41.598Z,10.50
2018-04-08T13:43:12.836Z,10.27
2018-04-08T13:45:42.859Z,11.20
2018-04-08T13:48:14.344Z,11.00
2018-04-08T13:50:44.830Z,11.50
2018-04-08T13:53:16.992Z,10.70
2018-04-08T13:55:48.041Z,11.00
2018-04-08T13:58:19.701Z,10.43
2018-04-08T14:00:49.915Z,12.03
2018-04-08T14:03:19.916Z,10.50
2018-04-08T14:05:50.667Z,10.50
2018-04-08T14:08:21.647Z,10.80
2018-04-08T14:10:51.728Z,10.70
2018-04-08T14:13:21.636Z,11.93
2018-04-08T14:15:51.707Z,10.93
2018-04-08T14:18:21.728Z,12.10
2018-04-08T14:20:52.098Z,11.33
2018-04-08T14:23:23.154Z,10.90
2018-04-08T14:25:55.312Z,11.00
2018-04-08T14:28:26.388Z,11.23
2018-04-08T14:31:00.251Z,11.87
2018-04-08T14:33:37.837Z,11.00
2018-04-08T14:36:14.443Z,11.53
2018-04-08T14:38:48.965Z,12.77
2018-04-08T14:41:21.546Z,10.93
2018-04-08T14:43:54.022Z,10.50
2018-04-08T14:46:27.637Z,11.70
2018-04-08T14:49:00.258Z,11.53
2018-04-08T14:51:32.506Z,11.77
2018-04-08T14:54:03.393Z,11.27
2018-04-08T14:56:33.596Z,11.70
2018-04-08T14:59:04.806Z,11.60
2018-04-08T15:01:35.158Z,12.13
2018-04-08T15:04:06.848Z,12.07
2018-04-08T15:06:37.474Z,11.17
2018-04-08T15:09:09.734Z,12.00
2018-04-08T15:11:40.462Z,12.43
2018-04-08T15:14:11.540Z,12.90
2018-04-08T15:16:42.375Z,12.03
2018-04-08T15:19:13.898Z,12.30
2018-04-08T15:21:46.373Z,13.43
2018-04-08T15:24:16.727Z,12.27
2018-04-08T15:26:48.260Z,12.83
2018-04-08T15:29:19.508Z,12.40
2018-04-08T15:31:49.446Z,13.23
2018-04-08T15:34:19.537Z,12.50
2018-04-08T15:36:49.873Z,12.00
2018-04-08T15:39:19.883Z,12.53
2018-04-08T15:41:50.005Z,13.93
2018-04-08T15:44:20.940Z,12.47
2018-04-08T15:46:50.988Z,13.07
2018-04-08T15:49:21.168Z,13.17
2018-04-08T15:51:53.438Z,13.53
2018-04-08T15:54:24.111Z,13.23
2018-04-08T15:56:54.396Z,12.90
2018-04-08T15:59:25.225Z,12.00
2018-04-08T16:01:56.988Z,11.63
2018-04-08T16:04:27.739Z,12.97
2018-04-08T16:06:57.677Z,12.67
2018-04-08T16:09:27.702Z,11.70
2018-04-08T16:11:57.987Z,12.00
2018-04-08T16:14:27.970Z,12.20
2018-04-08T16:16:59.239Z,11.80
2018-04-08T16:19:30.907Z,11.10
2018-04-08T16:22:01.041Z,12.45
2018-04-08T16:24:31.843Z,11.70
2018-04-08T16:27:02.264Z,10.27
2018-04-08T16:29:32.872Z,9.85
2018-04-08T16:32:03.137Z,9.20
2018-04-08T16:34:35.012Z,9.93
2018-04-08T16:37:04.887Z,10.02
2018-04-08T16:39:34.790Z,9.90
2018-04-08T16:42:04.681Z,9.95
2018-04-08T16:44:35.285Z,10.05
2018-04-08T16:47:06.771Z,8.98
2018-04-08T16:49:36.802Z,10.10
2018-04-08T16:52:07.577Z,9.93
2018-04-08T16:54:37.390Z,9.20
2018-04-08T16:57:08.888Z,9.67
2018-04-08T16:59:38.857Z,8.93
2018-04-08T17:02:08.845Z,8.43
2018-04-08T17:04:39.447Z,8.80
2018-04-08T17:07:09.364Z,9.18
2018-04-08T17:09:39.197Z,8.93
2018-04-08T17:12:09.088Z,9.60
2018-04-08T17:14:38.885Z,9.13
2018-04-08T17:17:08.712Z,8.43
2018-04-08T17:19:38.769Z,9.15
2018-04-08T17:22:09.507Z,8.13
2018-04-08T17:24:41.226Z,8.87
2018-04-08T17:27:11.908Z,8.30
2018-04-08T17:29:42.512Z,9.02
2018-04-08T17:32:12.401Z,8.60
2018-04-08T17:34:42.213Z,8.57
2018-04-08T17:37:12.058Z,7.95
2018-04-08T17:39:42.752Z,7.50
2018-04-08T17:42:12.957Z,7.80
2018-04-08T17:44:52.127Z,8.80
2018-04-08T17:47:22.270Z,9.43
2018-04-08T17:49:54.550Z,8.07
2018-04-08T17:52:24.844Z,7.80
2018-04-08T17:57:36.589Z,7.20
2018-04-08T18:00:07.147Z,8.73
2018-04-08T18:02:36.988Z,7.60
2018-04-08T18:05:06.798Z,7.67
2018-04-08T18:07:36.681Z,7.90
2018-04-08T18:10:06.529Z,7.33
2018-04-08T18:12:36.421Z,7.70
2018-04-08T18:15:06.252Z,7.90
2018-04-08T18:17:36.149Z,8.50
2018-04-08T18:20:06.017Z,7.90
2018-04-08T18:22:36.869Z,7.00
2018-04-08T18:25:06.694Z,7.13
2018-04-08T18:27:36.571Z,7.83
2018-04-08T18:30:07.548Z,8.07
2018-04-08T18:32:37.413Z,8.00
2018-04-08T18:35:07.993Z,8.10
2018-04-08T18:37:37.848Z,7.50
2018-04-08T18:40:07.689Z,7.70
2018-04-08T18:42:38.277Z,7.23
2018-04-08T18:45:08.094Z,8.15
2018-04-08T18:47:37.943Z,8.27
2018-04-08T18:50:08.565Z,7.43
2018-04-08T18:52:39.187Z,7.40
2018-04-08T18:55:09.039Z,7.70
2018-04-08T18:57:38.835Z,8.00
2018-04-08T19:00:09.414Z,7.37
2018-04-08T19:02:39.249Z,6.93
2018-04-08T19:05:09.906Z,7.93
2018-04-08T19:07:40.502Z,7.37
2018-04-08T19:10:10.340Z,7.27
2018-04-08T19:12:40.948Z,6.77
2018-04-08T19:15:17.645Z,6.72
2018-04-08T19:17:53.450Z,6.90
2018-04-08T19:20:23.341Z,7.00
2018-04-08T19:22:53.195Z,6.90
2018-04-08T19:25:23.005Z,7.97
2018-04-08T19:27:52.859Z,6.70
2018-04-08T19:30:23.689Z,7.07
2018-04-08T19:32:54.292Z,6.63
2018-04-08T19:35:24.082Z,7.35
2018-04-08T19:37:53.894Z,7.40
2018-04-08T19:40:23.723Z,6.60
2018-04-08T19:42:53.550Z,7.03
2018-04-08T19:45:23.381Z,6.65
2018-04-08T19:47:53.991Z,7.20
2018-04-08T19:50:23.888Z,7.07
2018-04-08T19:52:53.744Z,7.90
2018-04-08T19:55:24.319Z,6.83
2018-04-08T19:57:54.139Z,6.30
2018-04-08T20:00:23.974Z,6.77
2018-04-08T20:02:53.932Z,7.20
2018-04-08T20:05:24.599Z,7.20
2018-04-08T20:07:54.340Z,6.53
2018-04-08T20:10:24.982Z,6.13
2018-04-08T20:12:55.593Z,6.70
2018-04-08T20:15:25.467Z,6.73
2018-04-08T20:17:55.270Z,6.22
2018-04-08T20:20:25.255Z,5.63
2018-04-08T20:22:55.842Z,7.03
2018-04-08T20:25:25.702Z,8.40
2018-04-08T20:27:56.337Z,6.75
2018-04-08T20:30:26.243Z,5.78
2018-04-08T20:32:56.838Z,6.47
2018-04-08T20:35:26.701Z,6.82
2018-04-08T20:37:56.489Z,6.70
2018-04-08T20:40:26.468Z,6.50
2018-04-08T20:42:56.329Z,6.43
2018-04-08T20:45:27.436Z,6.40
2018-04-08T20:47:57.235Z,6.50
2018-04-08T20:50:27.033Z,6.90
2018-04-08T20:53:02.529Z,7.07
2018-04-08T20:55:33.148Z,5.70
2018-04-08T20:58:02.995Z,6.73
2018-04-08T21:00:33.115Z,6.53
2018-04-08T21:03:03.142Z,6.55
2018-04-08T21:05:33.133Z,5.28
2018-04-08T21:08:04.283Z,6.50
2018-04-08T21:10:34.110Z,6.53
2018-04-08T21:13:03.984Z,6.22
2018-04-08T21:15:34.887Z,5.78
2018-04-08T21:18:04.756Z,7.20
2018-04-08T21:20:35.437Z,6.10
2018-04-08T21:23:05.881Z,5.75
2018-04-08T21:25:35.723Z,5.60
2018-04-08T21:28:07.300Z,6.00
2018-04-08T21:30:37.092Z,5.78
2018-04-08T21:33:07.651Z,6.30
2018-04-08T21:35:37.649Z,6.37
2018-04-08T21:38:07.491Z,6.62
2018-04-08T21:40:37.356Z,7.20
2018-04-08T21:43:08.625Z,6.57
2018-04-08T21:45:38.612Z,7.83
2018-04-08T21:48:08.425Z,6.57
2018-04-08T21:50:38.289Z,6.10
2018-04-08T21:53:08.262Z,6.70
2018-04-08T21:55:38.983Z,6.95
2018-04-08T21:58:08.922Z,6.50
2018-04-08T22:00:39.533Z,6.47
2018-04-08T22:03:09.414Z,6.60
2018-04-08T22:05:39.366Z,6.15
2018-04-08T22:08:09.182Z,6.97
2018-04-08T22:10:39.088Z,6.77
2018-04-08T22:13:08.927Z,6.37
2018-04-08T22:15:39.938Z,6.28
2018-04-08T22:18:09.750Z,6.10
2018-04-08T22:20:39.616Z,5.93
2018-04-08T22:23:11.627Z,5.95
2018-04-08T22:25:41.453Z,6.43
2018-04-08T22:28:12.064Z,5.97
2018-04-08T22:30:41.883Z,6.77
2018-04-08T22:33:13.251Z,6.70
2018-04-08T22:35:43.861Z,5.97
2018-04-08T22:38:13.743Z,6.20
2018-04-08T22:40:43.648Z,5.93
2018-04-08T22:43:14.296Z,6.43
2018-04-08T22:45:44.446Z,5.90
2018-04-08T22:48:14.228Z,5.37
2018-04-08T22:50:44.122Z,6.55
2018-04-08T22:53:13.985Z,6.70
2018-04-08T22:55:43.805Z,5.83
2018-04-08T22:58:14.421Z,5.90
2018-04-08T23:00:44.231Z,5.57
2018-04-08T23:03:15.567Z,6.60
2018-04-08T23:05:45.346Z,6.00
2018-04-08T23:08:15.165Z,5.90
2018-04-08T23:10:45.074Z,5.77
2018-04-08T23:13:15.056Z,6.23
2018-04-08T23:15:45.759Z,6.30
2018-04-08T23:18:15.661Z,5.70
2018-04-08T23:20:45.645Z,6.63
2018-04-08T23:23:15.398Z,5.70
2018-04-08T23:25:45.362Z,6.07
2018-04-08T23:28:16.505Z,6.40
2018-04-08T23:30:48.363Z,5.60
2018-04-08T23:33:18.991Z,6.17
2018-04-08T23:35:49.571Z,6.67
2018-04-08T23:38:19.434Z,5.90
2018-04-08T23:40:50.060Z,6.12
2018-04-08T23:43:20.643Z,6.80
2018-04-08T23:45:50.510Z,5.67
2018-04-08T23:48:21.103Z,5.87
2018-04-08T23:50:51.546Z,6.37
2018-04-08T23:53:21.312Z,6.50
2018-04-08T23:55:51.306Z,5.73
2018-04-08T23:58:21.135Z,6.10
